Time;durP1;ratioP1;P1;durP2;ratioP2;P2;SDS_P1;SDS_P2;PMS_P1;PMS_P2;Temp;Humidity;BMP_temperature;BMP_pressure;BME280_temperature;BME280_humidity;BME280_pressure;Samples;Min_cycle;Max_cycle;Signal;HPM_P1;HPM_P2
2021/10/01 00:00:21;;;;;;;0.93;0.93;;;15.80;99.90;;;;;;5146075;27;20472;-41
2021/10/01 00:02:52;;;;;;;1.20;1.10;;;15.80;99.90;;;;;;5145909;27;20445;-42
2021/10/01 00:05:26;;;;;;;1.13;1.03;;;15.80;99.90;;;;;;5145832;27;20456;-41
2021/10/01 00:07:57;;;;;;;2.27;1.00;;;15.70;99.90;;;;;;5145724;27;20457;-42
2021/10/01 00:10:28;;;;;;;1.10;1.00;;;15.60;99.90;;;;;;5145625;27;20488;-41
2021/10/01 00:12:59;;;;;;;1.60;1.50;;;15.60;99.90;;;;;;5145672;27;20445;-41
2021/10/01 00:15:31;;;;;;;1.80;1.70;;;15.60;99.90;;;;;;5145948;27;20869;-41
2021/10/01 00:18:07;;;;;;;1.57;1.47;;;15.70;99.90;;;;;;5144773;27;20444;-41
2021/10/01 00:20:42;;;;;;;2.00;1.90;;;15.70;99.90;;;;;;5145760;27;20451;-41
2021/10/01 00:23:13;;;;;;;1.60;1.50;;;15.70;99.90;;;;;;5145392;27;20974;-41
2021/10/01 00:25:44;;;;;;;1.80;1.70;;;15.80;99.90;;;;;;5145781;27;20448;-41
2021/10/01 00:28:18;;;;;;;1.50;1.40;;;15.90;99.90;;;;;;5145038;27;20494;-41
2021/10/01 00:30:49;;;;;;;1.60;1.50;;;16.00;99.90;;;;;;5146003;27;20455;-41
2021/10/01 00:33:20;;;;;;;1.70;1.60;;;16.10;99.90;;;;;;5144945;27;20477;-41
2021/10/01 00:35:53;;;;;;;1.97;1.87;;;16.10;99.90;;;;;;5145396;27;20448;-42
2021/10/01 00:38:24;;;;;;;1.57;1.47;;;16.10;99.90;;;;;;5145009;27;20445;-42
2021/10/01 00:40:55;;;;;;;2.10;1.90;;;16.10;99.90;;;;;;5144321;27;20462;-41
2021/10/01 00:43:28;;;;;;;1.77;1.60;;;16.10;99.90;;;;;;5144962;27;20501;-41
2021/10/01 00:45:59;;;;;;;1.60;1.50;;;16.20;99.90;;;;;;5145140;27;20440;-41
2021/10/01 00:48:30;;;;;;;1.83;1.60;;;16.40;99.90;;;;;;5144331;27;20542;-41
2021/10/01 00:51:03;;;;;;;1.47;1.37;;;16.50;99.90;;;;;;5145068;27;20480;-43
2021/10/01 00:53:35;;;;;;;1.63;1.40;;;16.70;99.90;;;;;;5145058;27;20456;-42
2021/10/01 00:56:07;;;;;;;1.73;1.50;;;16.70;99.90;;;;;;5130920;27;20853;-42
2021/10/01 00:58:38;;;;;;;1.87;1.40;;;16.50;99.90;;;;;;5142669;27;20444;-41
2021/10/01 01:01:12;;;;;;;1.37;1.27;;;16.60;99.90;;;;;;5145532;27;20461;-41
2021/10/01 01:03:48;;;;;;;1.43;1.33;;;16.50;99.90;;;;;;5143545;27;20541;-42
2021/10/01 01:06:30;;;;;;;1.57;1.43;;;16.40;99.90;;;;;;5140715;27;20540;-40
2021/10/01 01:09:08;;;;;;;2.10;1.43;;;16.40;99.90;;;;;;5144048;27;20444;-41
2021/10/01 01:11:52;;;;;;;2.03;1.93;;;16.40;99.90;;;;;;5144200;27;20537;-41
2021/10/01 01:14:28;;;;;;;1.50;1.40;;;16.30;99.90;;;;;;5144150;27;20575;-42
2021/10/01 01:16:59;;;;;;;1.80;1.60;;;16.00;99.90;;;;;;5123372;28;20490;-40
2021/10/01 01:19:45;;;;;;;2.00;1.80;;;15.80;99.90;;;;;;5131956;27;20512;-41
2021/10/01 01:22:26;;;;;;;2.03;1.60;;;15.70;99.90;;;;;;5140855;27;20469;-41
2021/10/01 01:25:24;;;;;;;2.83;2.63;;;15.50;99.90;;;;;;5140246;27;20455;-41
2021/10/01 01:28:08;;;;;;;3.17;2.97;;;15.40;99.90;;;;;;5142526;27;20492;-41
2021/10/01 01:30:41;;;;;;;3.00;2.80;;;15.20;99.90;;;;;;5143822;27;20448;-41
2021/10/01 01:33:17;;;;;;;3.00;2.80;;;15.10;99.90;;;;;;5143417;27;20483;-41
2021/10/01 01:35:51;;;;;;;2.37;2.20;;;15.00;99.90;;;;;;5144113;27;20534;-41
2021/10/01 01:38:29;;;;;;;2.50;2.30;;;14.90;99.90;;;;;;5143613;27;20444;-41
2021/10/01 01:41:07;;;;;;;4.03;3.00;;;14.90;99.90;;;;;;5144382;27;20493;-42
2021/10/01 01:43:40;;;;;;;4.23;3.00;;;14.80;99.90;;;;;;5144262;27;20475;-41
2021/10/01 01:46:11;;;;;;;4.53;3.00;;;14.70;99.90;;;;;;5143797;27;20485;-42
2021/10/01 01:48:45;;;;;;;3.10;2.80;;;14.60;99.90;;;;;;5143423;27;20924;-41
2021/10/01 01:51:18;;;;;;;4.70;3.87;;;14.50;99.90;;;;;;5143525;27;20484;-41
2021/10/01 01:53:49;;;;;;;5.93;4.10;;;14.40;99.90;;;;;;5144130;27;20477;-41
2021/10/01 01:56:21;;;;;;;3.97;3.60;;;14.40;99.90;;;;;;5141660;27;20469;-42
2021/10/01 01:58:53;;;;;;;3.63;3.33;;;14.30;99.90;;;;;;5143798;27;20768;-42
2021/10/01 02:01:28;;;;;;;7.33;4.90;;;14.20;99.90;;;;;;5143204;27;20804;-41
2021/10/01 02:04:01;;;;;;;5.33;4.83;;;14.10;99.90;;;;;;5143681;27;20773;-42
2021/10/01 02:06:33;;;;;;;5.83;5.40;;;14.00;99.90;;;;;;5143489;28;20452;-41
2021/10/01 02:09:05;;;;;;;5.97;5.37;;;14.00;99.90;;;;;;5143707;27;20470;-41
2021/10/01 02:11:36;;;;;;;6.80;6.00;;;13.90;99.90;;;;;;5143535;27;20529;-42
2021/10/01 02:14:12;;;;;;;6.80;6.20;;;13.80;99.90;;;;;;5141022;27;20441;-42
2021/10/01 02:16:44;;;;;;;6.37;5.80;;;13.80;99.90;;;;;;5138425;28;20496;-42
2021/10/01 02:19:19;;;;;;;6.47;5.87;;;13.70;99.90;;;;;;5138576;28;20445;-42
2021/10/01 02:21:52;;;;;;;5.90;5.33;;;13.70;99.90;;;;;;5139350;28;20447;-42
2021/10/01 02:24:28;;;;;;;5.60;5.10;;;13.60;99.90;;;;;;5143245;27;20449;-41
2021/10/01 02:27:05;;;;;;;6.37;5.77;;;13.50;99.90;;;;;;5142901;27;20460;-42
2021/10/01 02:29:44;;;;;;;5.20;4.77;;;13.40;99.90;;;;;;5142469;27;20468;-42
2021/10/01 02:32:24;;;;;;;5.37;4.83;;;13.40;99.90;;;;;;5143199;28;21015;-41
2021/10/01 02:34:57;;;;;;;5.50;5.07;;;13.30;99.90;;;;;;5142227;28;20455;-42
2021/10/01 02:37:28;;;;;;;6.40;5.80;;;13.20;99.90;;;;;;5142995;27;20502;-41
2021/10/01 02:40:00;;;;;;;6.70;6.10;;;13.20;99.90;;;;;;5143024;27;20476;-42
2021/10/01 02:42:32;;;;;;;6.00;5.50;;;13.20;99.90;;;;;;5144390;27;20460;-42
2021/10/01 02:45:05;;;;;;;7.17;6.47;;;13.20;99.90;;;;;;5140869;28;20441;-42
2021/10/01 02:47:37;;;;;;;8.90;7.30;;;13.10;99.90;;;;;;5142495;28;20926;-42
2021/10/01 02:50:15;;;;;;;8.50;7.80;;;13.10;99.90;;;;;;5142727;27;20452;-41
2021/10/01 02:52:52;;;;;;;8.63;7.93;;;13.00;99.90;;;;;;5143155;28;20480;-42
2021/10/01 02:55:29;;;;;;;10.00;9.20;;;13.00;99.90;;;;;;5142707;27;20468;-42
2021/10/01 02:58:09;;;;;;;10.00;9.00;;;12.90;99.90;;;;;;5143996;27;20472;-42
2021/10/01 03:00:59;;;;;;;10.17;9.17;;;12.90;99.90;;;;;;5142460;28;20469;-42
2021/10/01 03:03:34;;;;;;;10.30;8.60;;;12.90;99.90;;;;;;5126705;27;21152;-42
2021/10/01 03:06:08;;;;;;;9.53;8.63;;;12.80;99.90;;;;;;5146153;27;20456;-42
2021/10/01 03:08:40;;;;;;;9.53;7.90;;;12.70;99.90;;;;;;5147169;27;20562;-41
2021/10/01 03:11:13;;;;;;;8.87;7.97;;;12.70;99.90;;;;;;5146964;27;20436;-41
2021/10/01 03:13:47;;;;;;;10.17;7.83;;;12.70;99.90;;;;;;5146459;27;20516;-39
2021/10/01 03:16:21;;;;;;;10.00;8.50;;;12.70;99.90;;;;;;5146283;27;20558;-41
2021/10/01 03:18:53;;;;;;;9.37;8.47;;;12.70;99.90;;;;;;5146360;27;20462;-42
2021/10/01 03:21:27;;;;;;;10.33;8.83;;;12.70;99.90;;;;;;5145477;27;20794;-42
2021/10/01 03:23:58;;;;;;;11.60;8.60;;;12.70;99.90;;;;;;5146777;27;20482;-42
2021/10/01 03:26:30;;;;;;;10.60;8.20;;;12.70;99.90;;;;;;5146710;27;20441;-41
2021/10/01 03:29:01;;;;;;;9.10;8.20;;;12.70;99.90;;;;;;5146116;27;20451;-42
2021/10/01 03:31:32;;;;;;;11.67;9.20;;;12.60;99.90;;;;;;5145760;27;20509;-42
2021/10/01 03:34:03;;;;;;;9.20;8.20;;;12.60;99.90;;;;;;5146440;27;20444;-41
2021/10/01 03:36:36;;;;;;;10.50;9.40;;;12.70;99.90;;;;;;5146040;27;20437;-41
2021/10/01 03:39:07;;;;;;;10.13;9.07;;;12.70;99.90;;;;;;5143127;27;20468;-41
2021/10/01 03:41:39;;;;;;;8.30;7.50;;;12.70;99.90;;;;;;5144894;27;20469;-41
2021/10/01 03:44:10;;;;;;;10.80;8.40;;;12.70;99.90;;;;;;5146024;27;20441;-41
2021/10/01 03:46:41;;;;;;;10.37;8.70;;;12.60;99.90;;;;;;5145553;27;20448;-42
2021/10/01 03:49:12;;;;;;;9.10;7.90;;;12.50;99.90;;;;;;5144971;27;20432;-42
2021/10/01 03:51:44;;;;;;;9.40;8.40;;;12.50;99.90;;;;;;5146391;27;20570;-42
2021/10/01 03:54:16;;;;;;;10.37;9.03;;;12.60;99.90;;;;;;5146413;27;20457;-41
2021/10/01 03:56:47;;;;;;;9.30;8.30;;;12.60;99.90;;;;;;5145568;27;20473;-41
2021/10/01 03:59:18;;;;;;;10.13;9.13;;;12.50;99.90;;;;;;5145526;27;20522;-41
2021/10/01 04:01:50;;;;;;;11.47;10.40;;;12.50;99.90;;;;;;5144360;27;20895;-41
2021/10/01 04:04:21;;;;;;;12.03;10.83;;;12.50;99.90;;;;;;5145474;27;20456;-41
2021/10/01 04:06:54;;;;;;;13.07;11.87;;;12.60;99.90;;;;;;5145996;27;20426;-41
2021/10/01 04:09:27;;;;;;;12.70;11.30;;;12.60;99.90;;;;;;5145839;27;20493;-41
2021/10/01 04:11:59;;;;;;;13.67;12.30;;;12.60;99.90;;;;;;5145625;27;20444;-41
2021/10/01 04:14:30;;;;;;;13.63;12.37;;;12.70;99.90;;;;;;5145610;27;20444;-41
2021/10/01 04:17:01;;;;;;;13.30;12.00;;;12.80;99.90;;;;;;5144735;27;20466;-41
2021/10/01 04:19:32;;;;;;;13.07;11.87;;;12.80;99.90;;;;;;5145070;27;20445;-41
2021/10/01 04:22:08;;;;;;;13.37;12.07;;;12.90;99.90;;;;;;5125249;27;20432;-41
2021/10/01 04:24:39;;;;;;;13.70;11.47;;;13.00;99.90;;;;;;5145770;27;20433;-41
2021/10/01 04:27:13;;;;;;;13.27;12.13;;;12.80;99.90;;;;;;5145404;27;20464;-41
2021/10/01 04:29:43;;;;;;;14.43;13.03;;;12.80;99.90;;;;;;5143014;27;20480;-41
2021/10/01 04:32:15;;;;;;;14.53;13.03;;;12.80;99.90;;;;;;5144307;27;20491;-41
2021/10/01 04:34:59;;;;;;;13.17;12.00;;;12.80;99.90;;;;;;5145275;27;20559;-41
2021/10/01 04:37:32;;;;;;;15.00;13.57;;;12.70;99.90;;;;;;5144736;27;20445;-42
2021/10/01 04:40:06;;;;;;;15.60;14.20;;;12.70;99.90;;;;;;5143774;27;20452;-41
2021/10/01 04:42:37;;;;;;;15.30;13.83;;;12.70;99.90;;;;;;5144952;27;20464;-41
2021/10/01 04:45:09;;;;;;;14.63;13.13;;;12.70;99.90;;;;;;5144978;27;20996;-41
2021/10/01 04:47:40;;;;;;;16.83;14.87;;;12.70;99.90;;;;;;5140314;27;20495;-41
2021/10/01 04:50:11;;;;;;;16.10;14.53;;;12.60;99.90;;;;;;5138463;27;20445;-41
2021/10/01 04:52:43;;;;;;;14.13;12.80;;;12.60;99.90;;;;;;5140935;27;20576;-41
2021/10/01 04:55:14;;;;;;;15.97;14.47;;;12.60;99.90;;;;;;5144808;27;20809;-41
2021/10/01 04:57:46;;;;;;;15.90;14.43;;;12.50;99.90;;;;;;5144805;27;20453;-41
2021/10/01 05:00:17;;;;;;;16.70;15.10;;;12.50;99.90;;;;;;5144478;27;20545;-41
2021/10/01 05:02:48;;;;;;;15.87;14.43;;;12.50;99.90;;;;;;5144161;27;20447;-41
2021/10/01 05:05:19;;;;;;;16.23;14.63;;;12.50;99.90;;;;;;5143999;27;20455;-41
2021/10/01 05:07:52;;;;;;;14.30;12.90;;;12.40;99.90;;;;;;5144439;27;20537;-43
2021/10/01 05:10:23;;;;;;;14.30;13.10;;;12.30;99.90;;;;;;5144805;27;20441;-42
2021/10/01 05:12:54;;;;;;;16.70;14.60;;;12.40;99.90;;;;;;5144633;27;20531;-41
2021/10/01 05:15:25;;;;;;;17.40;15.80;;;12.30;99.90;;;;;;5143634;27;20457;-41
2021/10/01 05:17:58;;;;;;;16.37;14.77;;;12.30;99.90;;;;;;5143730;27;20510;-41
2021/10/01 05:20:29;;;;;;;17.50;15.90;;;12.30;99.90;;;;;;5144383;27;20884;-41
2021/10/01 05:23:01;;;;;;;17.30;15.67;;;12.20;99.90;;;;;;5144017;27;20573;-42
2021/10/01 05:25:32;;;;;;;17.13;15.43;;;12.10;99.90;;;;;;5143636;27;20437;-42
2021/10/01 05:28:03;;;;;;;18.33;16.63;;;12.20;99.90;;;;;;5144248;27;20478;-42
2021/10/01 05:30:35;;;;;;;18.10;16.40;;;12.20;99.90;;;;;;5142513;27;20481;-42
2021/10/01 05:33:07;;;;;;;21.17;19.27;;;12.10;99.90;;;;;;5143595;27;20511;-41
2021/10/01 05:35:38;;;;;;;20.77;18.87;;;12.10;99.90;;;;;;5144468;27;20505;-41
2021/10/01 05:38:11;;;;;;;23.07;20.87;;;12.00;99.90;;;;;;5143973;27;20444;-41
2021/10/01 05:40:42;;;;;;;22.03;19.93;;;12.00;99.90;;;;;;5143608;27;20472;-41
2021/10/01 05:43:13;;;;;;;21.50;19.57;;;11.90;99.90;;;;;;5144147;27;20448;-41
2021/10/01 05:45:44;;;;;;;21.27;19.23;;;11.80;99.90;;;;;;5143503;27;20489;-41
2021/10/01 05:48:15;;;;;;;19.97;17.87;;;11.80;99.90;;;;;;5143413;27;20565;-41
2021/10/01 05:50:52;;;;;;;20.10;18.37;;;11.70;99.90;;;;;;5143750;27;20462;-41
2021/10/01 05:53:46;;;;;;;18.77;17.00;;;11.60;99.90;;;;;;5143802;27;20465;-41
2021/10/01 05:56:18;;;;;;;19.20;17.43;;;11.60;99.90;;;;;;5143593;27;20452;-41
2021/10/01 05:58:49;;;;;;;18.90;16.80;;;11.50;99.90;;;;;;5143959;27;20469;-41
2021/10/01 06:01:22;;;;;;;19.30;17.43;;;11.40;99.90;;;;;;5142879;27;20451;-41
2021/10/01 06:03:53;;;;;;;19.43;17.60;;;11.40;99.90;;;;;;5143610;27;20563;-41
2021/10/01 06:06:24;;;;;;;20.53;18.43;;;11.40;99.90;;;;;;5143453;27;20946;-41
2021/10/01 06:08:57;;;;;;;19.10;17.10;;;11.30;99.90;;;;;;5143515;28;20437;-41
2021/10/01 06:11:28;;;;;;;21.43;19.07;;;11.30;99.90;;;;;;5143733;27;20445;-41
2021/10/01 06:13:59;;;;;;;22.00;19.80;;;11.30;99.90;;;;;;5143589;28;20473;-41
2021/10/01 06:16:30;;;;;;;21.37;19.07;;;11.30;99.90;;;;;;5142695;28;20445;-41
2021/10/01 06:19:02;;;;;;;20.23;18.30;;;11.30;99.90;;;;;;5143299;27;20551;-41
2021/10/01 06:21:33;;;;;;;18.13;16.43;;;11.20;99.90;;;;;;5142511;28;20479;-41
2021/10/01 06:24:06;;;;;;;21.43;19.13;;;11.20;99.90;;;;;;5141398;27;20445;-41
2021/10/01 06:26:37;;;;;;;21.27;18.27;;;11.10;99.90;;;;;;5143011;27;20433;-41
2021/10/01 06:29:08;;;;;;;20.43;18.33;;;11.10;99.90;;;;;;5143696;28;20468;-41
2021/10/01 06:31:42;;;;;;;19.47;17.10;;;11.10;99.90;;;;;;5140512;27;20437;-41
2021/10/01 06:34:14;;;;;;;21.13;19.10;;;11.00;99.90;;;;;;5142889;27;20511;-41
2021/10/01 06:36:45;;;;;;;19.27;17.37;;;11.00;99.90;;;;;;5144370;27;20455;-41
2021/10/01 06:39:18;;;;;;;18.53;16.57;;;10.90;99.90;;;;;;5145532;27;20433;-41
2021/10/01 06:41:49;;;;;;;19.70;17.80;;;10.90;99.90;;;;;;5148053;27;20437;-41
2021/10/01 06:44:31;;;;;;;18.97;17.00;;;10.90;99.90;;;;;;5147976;27;20440;-42
2021/10/01 06:47:05;;;;;;;18.60;16.70;;;10.90;99.90;;;;;;5146586;27;20480;-41
2021/10/01 06:49:45;;;;;;;20.00;17.83;;;10.90;99.90;;;;;;5147392;27;20527;-41
2021/10/01 07:23:54;;;;;;;18.17;16.37;;;10.90;99.90;;;;;;5142214;27;20480;-40
2021/10/01 07:34:31;;;;;;;18.00;15.27;;;11.10;99.90;;;;;;5142683;27;20482;-40
2021/10/01 08:20:09;;;;;;;41.60;25.10;;;12.40;99.90;;;;;;5145607;27;20516;-41
2021/10/01 08:22:40;;;;;;;45.30;24.10;;;12.50;99.90;;;;;;5143913;27;20501;-41
2021/10/01 08:25:11;;;;;;;41.43;24.70;;;12.50;99.90;;;;;;5146500;27;20856;-41
2021/10/01 08:27:45;;;;;;;44.50;25.20;;;12.50;99.90;;;;;;5146148;27;20452;-41
2021/10/01 08:30:16;;;;;;;38.47;25.10;;;12.50;99.90;;;;;;5145978;27;20492;-41
2021/10/01 08:32:48;;;;;;;41.87;23.90;;;12.60;99.90;;;;;;5145351;27;20448;-41
2021/10/01 08:35:22;;;;;;;39.63;24.10;;;12.60;99.90;;;;;;5145545;27;20918;-41
2021/10/01 08:37:54;;;;;;;42.00;23.87;;;12.60;99.90;;;;;;5145587;27;20473;-41
2021/10/01 08:40:25;;;;;;;37.70;23.10;;;12.60;99.90;;;;;;5146017;27;20952;-41
2021/10/01 08:42:57;;;;;;;39.03;22.83;;;12.60;99.90;;;;;;5144849;27;20480;-41
2021/10/01 08:45:29;;;;;;;41.20;23.83;;;12.60;99.90;;;;;;5145030;27;20870;-41
2021/10/01 08:48:03;;;;;;;48.23;22.83;;;12.60;99.90;;;;;;5144735;27;20453;-41
2021/10/01 08:50:35;;;;;;;45.10;22.77;;;12.60;99.90;;;;;;5145832;27;20479;-41
2021/10/01 08:53:09;;;;;;;45.97;24.17;;;12.50;99.90;;;;;;5145235;27;20451;-40
2021/10/01 08:55:46;;;;;;;38.10;21.50;;;12.60;99.90;;;;;;5144274;27;20857;-41
2021/10/01 08:58:20;;;;;;;33.23;19.63;;;12.60;99.90;;;;;;5144261;27;20497;-42
2021/10/01 09:00:51;;;;;;;36.13;20.87;;;12.60;99.90;;;;;;5143832;27;20543;-40
2021/10/01 09:03:22;;;;;;;41.80;23.30;;;12.60;99.90;;;;;;5143459;27;20448;-41
2021/10/01 09:05:57;;;;;;;32.60;18.63;;;12.50;99.90;;;;;;5136066;27;20516;-40
2021/10/01 09:08:29;;;;;;;33.10;18.70;;;12.50;99.90;;;;;;5144946;27;20796;-41
2021/10/01 09:11:02;;;;;;;34.10;18.43;;;12.50;99.90;;;;;;5145142;27;20466;-41
2021/10/01 09:13:36;;;;;;;31.73;18.47;;;12.60;99.90;;;;;;5144271;27;20449;-40
2021/10/01 09:16:11;;;;;;;30.63;17.90;;;12.60;99.90;;;;;;5143870;27;20499;-40
2021/10/01 09:18:44;;;;;;;30.60;17.53;;;12.60;99.90;;;;;;5144372;27;20505;-41
2021/10/01 09:21:19;;;;;;;28.50;18.60;;;12.60;99.90;;;;;;5142016;27;20456;-41
2021/10/01 09:24:02;;;;;;;29.37;17.17;;;12.60;99.90;;;;;;5143998;27;20452;-40
2021/10/01 09:26:35;;;;;;;33.80;16.80;;;12.60;99.90;;;;;;5144113;27;20452;-41
2021/10/01 09:29:07;;;;;;;28.57;17.10;;;12.50;99.90;;;;;;5144431;27;20441;-41
2021/10/01 09:31:44;;;;;;;29.13;17.17;;;12.50;99.90;;;;;;5143714;27;20477;-41
2021/10/01 09:34:16;;;;;;;28.93;16.60;;;12.50;99.90;;;;;;5144072;27;20437;-41
2021/10/01 09:37:00;;;;;;;28.60;17.07;;;12.50;99.90;;;;;;5144198;27;20449;-41
2021/10/01 09:39:33;;;;;;;29.13;17.67;;;12.40;99.90;;;;;;5144353;27;20441;-41
2021/10/01 09:42:15;;;;;;;28.00;16.17;;;12.40;99.90;;;;;;5144112;27;20445;-41
2021/10/01 09:44:49;;;;;;;29.60;16.37;;;12.50;99.90;;;;;;5142090;27;20440;-41
2021/10/01 09:47:25;;;;;;;24.97;15.40;;;12.50;99.90;;;;;;5140225;27;20440;-39
2021/10/01 09:49:58;;;;;;;32.00;15.90;;;12.50;99.90;;;;;;5143640;27;20448;-41
2021/10/01 09:52:45;;;;;;;25.63;15.50;;;12.60;99.90;;;;;;5144404;27;20935;-41
2021/10/01 09:55:17;;;;;;;23.23;15.37;;;12.60;99.90;;;;;;5137521;27;20477;-41
2021/10/01 09:58:04;;;;;;;24.30;15.27;;;12.60;99.90;;;;;;5142636;27;20444;-41
2021/10/01 10:00:39;;;;;;;23.27;13.90;;;12.60;99.90;;;;;;5141514;27;20483;-41
2021/10/01 10:03:14;;;;;;;27.00;13.30;;;12.60;99.90;;;;;;5143959;27;20439;-41
2021/10/01 10:05:59;;;;;;;26.40;13.90;;;12.60;99.90;;;;;;5143485;27;20810;-41
2021/10/01 10:08:35;;;;;;;23.83;13.70;;;12.60;99.90;;;;;;5142918;27;20452;-41
2021/10/01 10:11:09;;;;;;;21.60;14.40;;;12.60;99.90;;;;;;5128951;27;20505;-41
2021/10/01 10:13:43;;;;;;;22.20;14.70;;;12.70;99.90;;;;;;5143766;27;20453;-41
2021/10/01 10:16:15;;;;;;;27.40;14.60;;;12.70;99.90;;;;;;5143117;28;20987;-41
2021/10/01 10:18:50;;;;;;;22.10;14.80;;;12.70;99.90;;;;;;5143806;27;20445;-41
2021/10/01 10:21:22;;;;;;;23.00;14.17;;;12.70;99.90;;;;;;5141452;27;20491;-41
2021/10/01 10:23:55;;;;;;;23.03;14.47;;;12.70;99.90;;;;;;5143553;27;20475;-42
2021/10/01 10:26:27;;;;;;;23.53;13.13;;;12.70;99.90;;;;;;5141012;27;20449;-41
2021/10/01 10:29:01;;;;;;;24.67;15.03;;;12.70;99.90;;;;;;5143172;28;20460;-41
2021/10/01 10:31:34;;;;;;;21.70;13.73;;;12.80;99.90;;;;;;5142136;27;21167;-41
2021/10/01 10:34:21;;;;;;;25.40;14.70;;;12.80;99.90;;;;;;5143799;27;20494;-41
2021/10/01 10:36:54;;;;;;;21.07;12.83;;;12.70;99.90;;;;;;5137716;27;20894;-41
2021/10/01 10:39:48;;;;;;;20.17;13.10;;;12.70;99.90;;;;;;5140375;28;20542;-41
2021/10/01 10:42:31;;;;;;;19.97;13.27;;;12.80;99.90;;;;;;5144011;27;20768;-41
2021/10/01 10:45:13;;;;;;;18.03;12.50;;;12.70;99.90;;;;;;5143647;27;20441;-41
2021/10/01 10:47:51;;;;;;;25.10;14.40;;;12.60;99.90;;;;;;5143262;28;20484;-41
2021/10/01 10:50:55;;;;;;;17.97;13.20;;;12.60;99.90;;;;;;5144389;27;21192;-41
2021/10/01 10:53:28;;;;;;;25.70;13.90;;;12.60;99.90;;;;;;5141356;28;20484;-41
2021/10/01 10:56:07;;;;;;;22.57;14.50;;;12.60;99.90;;;;;;5142784;28;20527;-41
2021/10/01 10:58:53;;;;;;;25.17;13.30;;;12.60;99.90;;;;;;5138119;28;20484;-41
2021/10/01 11:01:41;;;;;;;21.07;12.83;;;12.60;99.90;;;;;;5143036;27;20508;-41
2021/10/01 11:04:40;;;;;;;24.70;14.33;;;12.70;99.90;;;;;;5143203;27;20445;-41
2021/10/01 11:07:32;;;;;;;22.10;14.70;;;12.70;99.90;;;;;;5143089;27;20562;-41
2021/10/01 11:10:35;;;;;;;24.40;15.03;;;12.60;99.90;;;;;;5142982;27;20449;-40
2021/10/01 11:13:35;;;;;;;19.97;14.50;;;12.60;99.90;;;;;;5122810;28;20475;-41
2021/10/01 11:16:20;;;;;;;22.93;15.37;;;12.70;99.90;;;;;;5114062;28;20503;-41
2021/10/01 11:19:04;;;;;;;23.83;14.50;;;12.70;99.90;;;;;;5118500;28;20499;-41
2021/10/01 11:21:37;;;;;;;29.63;15.67;;;12.60;99.90;;;;;;5120233;28;20441;-41
2021/10/01 11:24:10;;;;;;;27.70;15.40;;;12.60;99.90;;;;;;5121050;28;20483;-41
2021/10/01 11:26:43;;;;;;;23.83;14.17;;;12.60;99.90;;;;;;5123169;28;20542;-41
2021/10/01 11:29:26;;;;;;;25.97;15.70;;;12.60;99.90;;;;;;5121707;28;20564;-41
2021/10/01 11:32:02;;;;;;;19.77;14.93;;;12.60;99.90;;;;;;5111480;28;20515;-41
2021/10/01 11:34:40;;;;;;;25.83;14.43;;;12.60;99.90;;;;;;5116441;28;20465;-41
2021/10/01 11:37:23;;;;;;;22.10;14.40;;;12.70;99.90;;;;;;5123264;28;20528;-41
2021/10/01 11:39:55;;;;;;;20.67;13.77;;;12.70;99.90;;;;;;5113912;28;20450;-41
2021/10/01 11:42:28;;;;;;;26.37;15.60;;;12.60;99.90;;;;;;5115330;28;20548;-41
2021/10/01 11:45:10;;;;;;;25.77;15.10;;;12.60;99.90;;;;;;5103207;28;20465;-41
2021/10/01 11:47:50;;;;;;;27.23;15.40;;;12.60;99.90;;;;;;5102113;28;20525;-42
2021/10/01 11:50:21;;;;;;;23.30;15.90;;;12.60;99.90;;;;;;5116477;28;20456;-41
2021/10/01 11:52:53;;;;;;;24.23;14.90;;;12.60;99.90;;;;;;5142275;27;20445;-41
2021/10/01 11:55:32;;;;;;;21.67;13.07;;;12.60;99.90;;;;;;5143697;27;20825;-41
2021/10/01 11:58:03;;;;;;;21.40;15.40;;;12.60;99.90;;;;;;5146762;27;20568;-41
2021/10/01 12:00:55;;;;;;;19.87;13.80;;;12.50;99.90;;;;;;5143032;27;20477;-41
2021/10/01 12:03:27;;;;;;;22.37;14.53;;;12.50;99.90;;;;;;5144662;27;20524;-41
2021/10/01 12:06:00;;;;;;;21.97;14.30;;;12.50;99.90;;;;;;5144602;27;20468;-41
2021/10/01 12:08:35;;;;;;;18.20;13.17;;;12.50;99.90;;;;;;5145757;27;20477;-41
2021/10/01 12:11:07;;;;;;;20.17;13.83;;;12.50;99.90;;;;;;5141814;27;20540;-41
2021/10/01 12:13:39;;;;;;;18.73;11.73;;;12.40;99.90;;;;;;5134850;27;20498;-41
2021/10/01 12:16:14;;;;;;;19.80;12.40;;;12.50;99.90;;;;;;5145485;27;20480;-41
2021/10/01 12:18:54;;;;;;;18.53;13.00;;;12.50;99.90;;;;;;5145860;27;20834;-41
2021/10/01 12:21:28;;;;;;;15.50;10.50;;;12.40;99.90;;;;;;5145277;27;20444;-42
2021/10/01 12:24:01;;;;;;;17.80;11.07;;;12.40;99.90;;;;;;5145394;27;20572;-41
2021/10/01 12:26:33;;;;;;;13.80;10.90;;;12.40;99.90;;;;;;5145215;27;20457;-41
2021/10/01 12:29:10;;;;;;;14.20;10.53;;;12.30;99.90;;;;;;5145494;27;20550;-41
2021/10/01 12:31:46;;;;;;;12.40;10.20;;;12.30;99.90;;;;;;5145190;27;20436;-41
2021/10/01 12:34:20;;;;;;;15.23;10.00;;;12.30;99.90;;;;;;5145067;27;20441;-42
2021/10/01 12:36:52;;;;;;;14.00;10.53;;;12.30;99.90;;;;;;5144402;27;20472;-41
2021/10/01 12:39:25;;;;;;;13.20;10.53;;;12.20;99.90;;;;;;5142502;27;20445;-41
2021/10/01 12:41:58;;;;;;;19.10;11.37;;;12.20;99.90;;;;;;5142943;27;20445;-41
2021/10/01 12:44:32;;;;;;;16.40;11.27;;;12.30;99.90;;;;;;5145365;27;20459;-41
2021/10/01 12:47:16;;;;;;;14.70;10.30;;;12.20;99.90;;;;;;5144365;27;20493;-41
2021/10/01 12:49:59;;;;;;;13.23;10.10;;;12.10;99.90;;;;;;5133154;27;20451;-41
2021/10/01 12:52:31;;;;;;;15.67;10.93;;;12.10;99.90;;;;;;5124381;28;20450;-42
2021/10/01 12:55:07;;;;;;;13.37;9.60;;;12.10;99.90;;;;;;5124620;28;20538;-42
2021/10/01 12:57:39;;;;;;;19.50;11.20;;;12.10;99.90;;;;;;5124035;27;20528;-41
2021/10/01 13:00:14;;;;;;;19.27;9.83;;;12.00;99.90;;;;;;5134977;27;20476;-41
2021/10/01 13:02:48;;;;;;;17.80;10.50;;;12.00;99.90;;;;;;5143265;27;20456;-41
2021/10/01 13:05:24;;;;;;;12.60;9.73;;;12.10;99.90;;;;;;5143872;27;20529;-41
2021/10/01 13:08:10;;;;;;;15.50;10.30;;;12.10;99.90;;;;;;5144781;27;20449;-41
2021/10/01 13:10:42;;;;;;;12.90;9.63;;;12.10;99.90;;;;;;5143901;27;20501;-41
2021/10/01 13:13:15;;;;;;;14.07;10.10;;;12.10;99.90;;;;;;5144155;27;20445;-41
2021/10/01 13:15:48;;;;;;;12.07;9.00;;;12.20;99.90;;;;;;5144355;27;20444;-41
2021/10/01 13:18:26;;;;;;;13.27;9.43;;;12.10;99.90;;;;;;5141271;27;21780;-41
2021/10/01 13:21:11;;;;;;;15.27;9.70;;;12.00;99.90;;;;;;5142370;27;20441;-42
2021/10/01 13:23:45;;;;;;;15.87;9.87;;;12.00;99.90;;;;;;5144503;27;20433;-42
2021/10/01 13:26:17;;;;;;;12.07;9.50;;;12.00;99.90;;;;;;5144731;27;20436;-40
2021/10/01 13:28:50;;;;;;;14.27;10.17;;;12.00;99.90;;;;;;5144148;27;20481;-41
2021/10/01 13:31:23;;;;;;;13.73;9.67;;;12.00;99.90;;;;;;5143598;27;20552;-40
2021/10/01 13:33:58;;;;;;;15.53;11.73;;;12.00;99.90;;;;;;5143943;27;20959;-41
2021/10/01 13:36:32;;;;;;;14.50;9.80;;;12.00;99.90;;;;;;5142263;27;20484;-41
2021/10/01 13:39:05;;;;;;;14.60;10.67;;;12.00;99.90;;;;;;5143114;27;20448;-41
2021/10/01 13:41:35;;;;;;;18.70;12.07;;;12.00;99.90;;;;;;5144102;27;20437;-41
2021/10/01 13:44:07;;;;;;;16.97;12.27;;;12.00;99.90;;;;;;5143988;27;20445;-41
2021/10/01 13:46:40;;;;;;;15.97;11.00;;;12.00;99.90;;;;;;5142849;27;20519;-41
2021/10/01 13:49:15;;;;;;;16.00;11.63;;;12.00;99.90;;;;;;5143171;27;20496;-41
2021/10/01 13:51:46;;;;;;;16.90;10.80;;;12.00;99.90;;;;;;5143841;27;20476;-41
2021/10/01 13:54:20;;;;;;;16.23;11.80;;;11.90;99.90;;;;;;5143890;27;20443;-41
2021/10/01 13:56:51;;;;;;;20.00;11.50;;;11.80;99.90;;;;;;5142930;27;20437;-41
2021/10/01 13:59:24;;;;;;;17.90;11.10;;;11.80;99.90;;;;;;5142078;27;20517;-41
2021/10/01 14:01:55;;;;;;;16.10;11.00;;;11.80;99.90;;;;;;5142878;27;20513;-41
2021/10/01 14:04:27;;;;;;;16.67;11.97;;;11.80;99.90;;;;;;5143368;27;20455;-41
2021/10/01 14:06:58;;;;;;;17.50;13.07;;;11.80;99.90;;;;;;5143568;27;20445;-41
2021/10/01 14:09:29;;;;;;;17.17;12.43;;;11.90;99.90;;;;;;5143763;27;20437;-41
2021/10/01 14:12:20;;;;;;;17.37;12.30;;;11.80;99.90;;;;;;5143764;27;20441;-41
2021/10/01 14:14:51;;;;;;;21.93;14.20;;;11.80;99.90;;;;;;5144321;28;20437;-41
2021/10/01 14:17:22;;;;;;;18.13;13.07;;;11.80;99.90;;;;;;5143098;28;20480;-42
2021/10/01 14:19:56;;;;;;;21.50;13.83;;;11.70;99.90;;;;;;5143408;28;20441;-42
2021/10/01 14:22:27;;;;;;;19.33;13.70;;;11.70;99.90;;;;;;5143232;28;20449;-41
2021/10/01 14:24:58;;;;;;;19.67;12.90;;;11.70;99.90;;;;;;5143397;27;20445;-41
2021/10/01 14:27:29;;;;;;;21.77;13.40;;;11.70;99.90;;;;;;5142648;28;20445;-41
2021/10/01 14:30:00;;;;;;;22.03;12.97;;;11.70;99.90;;;;;;5144056;27;20975;-41
2021/10/01 14:32:31;;;;;;;17.90;12.00;;;11.80;99.90;;;;;;5142619;28;20473;-41